sensor_id;sensor_type;location;lat;lon;timestamp;P1;durP1;ratioP1;P2;durP2;ratioP2
23728;SDS011;12045;60.214;24.724;2022-12-20T00:01:21;21.67;;;8.33;;
23728;SDS011;12045;60.214;24.724;2022-12-20T00:03:51;21.47;;;8.60;;
23728;SDS011;12045;60.214;24.724;2022-12-20T00:06:20;18.70;;;7.60;;
23728;SDS011;12045;60.214;24.724;2022-12-20T00:08:55;20.93;;;7.70;;
23728;SDS011;12045;60.214;24.724;2022-12-20T00:11:24;22.20;;;8.80;;
23728;SDS011;12045;60.214;24.724;2022-12-20T00:13:52;22.10;;;8.90;;
23728;SDS011;12045;60.214;24.724;2022-12-20T00:16:24;22.13;;;8.23;;
23728;SDS011;12045;60.214;24.724;2022-12-20T00:18:55;20.83;;;8.27;;
23728;SDS011;12045;60.214;24.724;2022-12-20T00:21:24;21.13;;;8.33;;
23728;SDS011;12045;60.214;24.724;2022-12-20T00:23:53;24.77;;;9.20;;
23728;SDS011;12045;60.214;24.724;2022-12-20T00:26:22;21.80;;;8.97;;
23728;SDS011;12045;60.214;24.724;2022-12-20T00:28:52;20.17;;;8.63;;
23728;SDS011;12045;60.214;24.724;2022-12-20T00:31:20;22.70;;;8.17;;
23728;SDS011;12045;60.214;24.724;2022-12-20T00:33:50;21.17;;;8.67;;
23728;SDS011;12045;60.214;24.724;2022-12-20T00:36:19;21.17;;;8.47;;
23728;SDS011;12045;60.214;24.724;2022-12-20T00:38:48;23.87;;;9.10;;
23728;SDS011;12045;60.214;24.724;2022-12-20T00:41:18;22.27;;;8.70;;
23728;SDS011;12045;60.214;24.724;2022-12-20T00:43:47;19.30;;;8.93;;
23728;SDS011;12045;60.214;24.724;2022-12-20T00:46:16;23.70;;;9.53;;
23728;SDS011;12045;60.214;24.724;2022-12-20T00:48:44;22.03;;;8.80;;
23728;SDS011;12045;60.214;24.724;2022-12-20T00:51:14;22.17;;;9.73;;
23728;SDS011;12045;60.214;24.724;2022-12-20T00:53:43;22.27;;;9.27;;
23728;SDS011;12045;60.214;24.724;2022-12-20T00:56:12;23.53;;;9.40;;
23728;SDS011;12045;60.214;24.724;2022-12-20T00:58:40;17.50;;;8.30;;
23728;SDS011;12045;60.214;24.724;2022-12-20T01:01:25;22.07;;;9.17;;
23728;SDS011;12045;60.214;24.724;2022-12-20T01:03:54;24.20;;;9.03;;
23728;SDS011;12045;60.214;24.724;2022-12-20T01:06:22;23.40;;;9.20;;
23728;SDS011;12045;60.214;24.724;2022-12-20T01:08:52;21.77;;;9.40;;
23728;SDS011;12045;60.214;24.724;2022-12-20T01:11:24;22.80;;;9.57;;
23728;SDS011;12045;60.214;24.724;2022-12-20T01:14:06;26.07;;;9.80;;
23728;SDS011;12045;60.214;24.724;2022-12-20T01:16:39;26.07;;;10.10;;
23728;SDS011;12045;60.214;24.724;2022-12-20T01:19:08;25.50;;;10.70;;
23728;SDS011;12045;60.214;24.724;2022-12-20T01:21:39;24.63;;;9.93;;
23728;SDS011;12045;60.214;24.724;2022-12-20T01:24:14;26.57;;;9.67;;
23728;SDS011;12045;60.214;24.724;2022-12-20T01:26:46;25.33;;;9.30;;
23728;SDS011;12045;60.214;24.724;2022-12-20T01:29:14;21.23;;;8.57;;
23728;SDS011;12045;60.214;24.724;2022-12-20T01:31:42;23.47;;;9.17;;
23728;SDS011;12045;60.214;24.724;2022-12-20T01:34:11;25.10;;;9.60;;
23728;SDS011;12045;60.214;24.724;2022-12-20T01:36:38;29.70;;;10.23;;
23728;SDS011;12045;60.214;24.724;2022-12-20T01:41:41;23.03;;;9.27;;
23728;SDS011;12045;60.214;24.724;2022-12-20T01:46:44;24.43;;;10.03;;
23728;SDS011;12045;60.214;24.724;2022-12-20T01:49:14;22.40;;;8.90;;
23728;SDS011;12045;60.214;24.724;2022-12-20T01:51:48;29.43;;;11.00;;
23728;SDS011;12045;60.214;24.724;2022-12-20T01:54:20;25.20;;;10.90;;
23728;SDS011;12045;60.214;24.724;2022-12-20T01:56:53;25.77;;;10.37;;
23728;SDS011;12045;60.214;24.724;2022-12-20T01:59:31;27.63;;;10.63;;
23728;SDS011;12045;60.214;24.724;2022-12-20T02:02:02;27.03;;;11.13;;
23728;SDS011;12045;60.214;24.724;2022-12-20T02:04:33;28.10;;;10.77;;
23728;SDS011;12045;60.214;24.724;2022-12-20T02:07:01;27.17;;;11.27;;
23728;SDS011;12045;60.214;24.724;2022-12-20T02:09:30;26.97;;;11.47;;
23728;SDS011;12045;60.214;24.724;2022-12-20T02:20:32;30.33;;;11.43;;
23728;SDS011;12045;60.214;24.724;2022-12-20T02:31:25;29.73;;;10.87;;
23728;SDS011;12045;60.214;24.724;2022-12-20T02:33:58;28.23;;;10.90;;
23728;SDS011;12045;60.214;24.724;2022-12-20T02:36:27;27.53;;;11.23;;
23728;SDS011;12045;60.214;24.724;2022-12-20T02:38:54;27.83;;;11.20;;
23728;SDS011;12045;60.214;24.724;2022-12-20T02:41:23;32.80;;;12.23;;
23728;SDS011;12045;60.214;24.724;2022-12-20T02:44:06;34.00;;;11.83;;
23728;SDS011;12045;60.214;24.724;2022-12-20T02:46:57;30.00;;;11.53;;
23728;SDS011;12045;60.214;24.724;2022-12-20T02:49:28;32.43;;;11.53;;
23728;SDS011;12045;60.214;24.724;2022-12-20T02:51:58;32.27;;;11.60;;
23728;SDS011;12045;60.214;24.724;2022-12-20T02:54:28;33.70;;;11.83;;
23728;SDS011;12045;60.214;24.724;2022-12-20T02:57:13;32.63;;;11.93;;
23728;SDS011;12045;60.214;24.724;2022-12-20T03:00:02;30.83;;;11.50;;
23728;SDS011;12045;60.214;24.724;2022-12-20T03:02:30;28.33;;;10.60;;
23728;SDS011;12045;60.214;24.724;2022-12-20T03:05:19;32.77;;;12.20;;
23728;SDS011;12045;60.214;24.724;2022-12-20T03:07:49;26.73;;;10.63;;
23728;SDS011;12045;60.214;24.724;2022-12-20T03:10:17;28.27;;;11.13;;
23728;SDS011;12045;60.214;24.724;2022-12-20T03:12:46;23.33;;;9.37;;
23728;SDS011;12045;60.214;24.724;2022-12-20T03:15:13;33.17;;;12.27;;
23728;SDS011;12045;60.214;24.724;2022-12-20T03:17:41;31.57;;;12.37;;
23728;SDS011;12045;60.214;24.724;2022-12-20T03:20:08;36.17;;;11.90;;
23728;SDS011;12045;60.214;24.724;2022-12-20T03:22:37;30.17;;;11.37;;
23728;SDS011;12045;60.214;24.724;2022-12-20T03:25:05;30.67;;;11.67;;
23728;SDS011;12045;60.214;24.724;2022-12-20T03:27:33;33.07;;;12.53;;
23728;SDS011;12045;60.214;24.724;2022-12-20T03:30:00;28.07;;;11.30;;
23728;SDS011;12045;60.214;24.724;2022-12-20T03:32:27;30.63;;;11.80;;
23728;SDS011;12045;60.214;24.724;2022-12-20T03:34:55;33.03;;;12.20;;
23728;SDS011;12045;60.214;24.724;2022-12-20T03:37:23;31.57;;;12.87;;
23728;SDS011;12045;60.214;24.724;2022-12-20T03:39:51;29.53;;;11.57;;
23728;SDS011;12045;60.214;24.724;2022-12-20T03:42:18;31.47;;;11.90;;
23728;SDS011;12045;60.214;24.724;2022-12-20T03:44:46;28.10;;;11.77;;
23728;SDS011;12045;60.214;24.724;2022-12-20T03:47:13;30.07;;;11.70;;
23728;SDS011;12045;60.214;24.724;2022-12-20T03:49:41;32.43;;;11.83;;
23728;SDS011;12045;60.214;24.724;2022-12-20T03:52:12;33.67;;;12.37;;
23728;SDS011;12045;60.214;24.724;2022-12-20T03:54:40;30.43;;;11.43;;
23728;SDS011;12045;60.214;24.724;2022-12-20T03:57:07;28.93;;;12.17;;
23728;SDS011;12045;60.214;24.724;2022-12-20T03:59:34;29.20;;;12.20;;
23728;SDS011;12045;60.214;24.724;2022-12-20T04:02:02;32.80;;;12.63;;
23728;SDS011;12045;60.214;24.724;2022-12-20T04:04:30;27.70;;;12.07;;
23728;SDS011;12045;60.214;24.724;2022-12-20T04:06:57;34.27;;;12.20;;
23728;SDS011;12045;60.214;24.724;2022-12-20T04:09:25;30.77;;;11.20;;
23728;SDS011;12045;60.214;24.724;2022-12-20T04:11:52;33.73;;;12.30;;
23728;SDS011;12045;60.214;24.724;2022-12-20T04:14:19;34.37;;;11.77;;
23728;SDS011;12045;60.214;24.724;2022-12-20T04:16:47;34.10;;;12.70;;
23728;SDS011;12045;60.214;24.724;2022-12-20T04:19:14;33.47;;;12.40;;
23728;SDS011;12045;60.214;24.724;2022-12-20T04:21:42;30.87;;;12.03;;
23728;SDS011;12045;60.214;24.724;2022-12-20T04:24:09;38.07;;;13.63;;
23728;SDS011;12045;60.214;24.724;2022-12-20T04:26:37;34.43;;;12.03;;
23728;SDS011;12045;60.214;24.724;2022-12-20T04:29:04;33.90;;;13.23;;
23728;SDS011;12045;60.214;24.724;2022-12-20T04:31:32;33.30;;;13.47;;
23728;SDS011;12045;60.214;24.724;2022-12-20T04:33:59;36.30;;;13.33;;
23728;SDS011;12045;60.214;24.724;2022-12-20T04:36:27;35.20;;;13.50;;
23728;SDS011;12045;60.214;24.724;2022-12-20T04:38:54;33.87;;;12.20;;
23728;SDS011;12045;60.214;24.724;2022-12-20T04:41:22;35.43;;;12.93;;
23728;SDS011;12045;60.214;24.724;2022-12-20T04:43:50;31.27;;;12.73;;
23728;SDS011;12045;60.214;24.724;2022-12-20T04:46:23;33.27;;;12.40;;
23728;SDS011;12045;60.214;24.724;2022-12-20T04:48:52;31.20;;;12.50;;
23728;SDS011;12045;60.214;24.724;2022-12-20T04:51:25;30.40;;;12.53;;
23728;SDS011;12045;60.214;24.724;2022-12-20T04:53:53;31.07;;;11.93;;
23728;SDS011;12045;60.214;24.724;2022-12-20T04:56:25;30.87;;;12.70;;
23728;SDS011;12045;60.214;24.724;2022-12-20T04:58:55;31.00;;;12.17;;
23728;SDS011;12045;60.214;24.724;2022-12-20T05:01:24;33.50;;;12.70;;
23728;SDS011;12045;60.214;24.724;2022-12-20T05:04:01;36.07;;;12.67;;
23728;SDS011;12045;60.214;24.724;2022-12-20T05:06:28;36.47;;;13.10;;
23728;SDS011;12045;60.214;24.724;2022-12-20T05:08:56;32.83;;;12.97;;
23728;SDS011;12045;60.214;24.724;2022-12-20T05:11:23;31.77;;;12.43;;
23728;SDS011;12045;60.214;24.724;2022-12-20T05:13:51;33.83;;;13.00;;
23728;SDS011;12045;60.214;24.724;2022-12-20T05:16:18;37.33;;;12.97;;
23728;SDS011;12045;60.214;24.724;2022-12-20T05:18:46;34.70;;;13.50;;
23728;SDS011;12045;60.214;24.724;2022-12-20T05:21:15;34.43;;;13.10;;
23728;SDS011;12045;60.214;24.724;2022-12-20T05:24:02;31.63;;;13.10;;
23728;SDS011;12045;60.214;24.724;2022-12-20T05:26:48;37.63;;;13.00;;
23728;SDS011;12045;60.214;24.724;2022-12-20T05:29:15;39.10;;;14.40;;
23728;SDS011;12045;60.214;24.724;2022-12-20T05:31:42;37.60;;;12.97;;
23728;SDS011;12045;60.214;24.724;2022-12-20T05:34:14;37.47;;;13.50;;
23728;SDS011;12045;60.214;24.724;2022-12-20T05:36:41;40.43;;;13.37;;
23728;SDS011;12045;60.214;24.724;2022-12-20T05:39:13;34.50;;;13.43;;
23728;SDS011;12045;60.214;24.724;2022-12-20T05:41:40;39.27;;;15.20;;
23728;SDS011;12045;60.214;24.724;2022-12-20T05:44:08;36.53;;;14.10;;
23728;SDS011;12045;60.214;24.724;2022-12-20T05:46:35;33.67;;;13.17;;
23728;SDS011;12045;60.214;24.724;2022-12-20T05:49:03;37.70;;;13.63;;
23728;SDS011;12045;60.214;24.724;2022-12-20T05:51:30;35.80;;;13.43;;
23728;SDS011;12045;60.214;24.724;2022-12-20T05:53:58;42.77;;;14.90;;
23728;SDS011;12045;60.214;24.724;2022-12-20T05:56:26;40.33;;;14.63;;
23728;SDS011;12045;60.214;24.724;2022-12-20T05:58:54;44.13;;;15.57;;
23728;SDS011;12045;60.214;24.724;2022-12-20T06:01:21;35.10;;;13.67;;
23728;SDS011;12045;60.214;24.724;2022-12-20T06:03:49;42.87;;;15.43;;
23728;SDS011;12045;60.214;24.724;2022-12-20T06:06:17;32.10;;;12.47;;
23728;SDS011;12045;60.214;24.724;2022-12-20T06:08:45;43.47;;;15.63;;
23728;SDS011;12045;60.214;24.724;2022-12-20T06:11:12;43.50;;;14.23;;
23728;SDS011;12045;60.214;24.724;2022-12-20T06:13:41;38.63;;;14.90;;
23728;SDS011;12045;60.214;24.724;2022-12-20T06:16:08;45.57;;;16.90;;
23728;SDS011;12045;60.214;24.724;2022-12-20T06:18:36;47.03;;;16.03;;
23728;SDS011;12045;60.214;24.724;2022-12-20T06:21:04;46.50;;;15.80;;
23728;SDS011;12045;60.214;24.724;2022-12-20T06:23:31;46.67;;;16.30;;
23728;SDS011;12045;60.214;24.724;2022-12-20T06:26:00;44.93;;;16.73;;
23728;SDS011;12045;60.214;24.724;2022-12-20T06:28:27;47.07;;;15.40;;
23728;SDS011;12045;60.214;24.724;2022-12-20T06:30:56;44.00;;;16.00;;
23728;SDS011;12045;60.214;24.724;2022-12-20T06:33:24;46.70;;;16.47;;
23728;SDS011;12045;60.214;24.724;2022-12-20T06:35:51;42.13;;;15.57;;
23728;SDS011;12045;60.214;24.724;2022-12-20T06:38:19;42.43;;;16.13;;
23728;SDS011;12045;60.214;24.724;2022-12-20T06:40:47;45.50;;;14.57;;
23728;SDS011;12045;60.214;24.724;2022-12-20T06:43:15;44.07;;;16.70;;
23728;SDS011;12045;60.214;24.724;2022-12-20T06:45:42;43.63;;;16.53;;
23728;SDS011;12045;60.214;24.724;2022-12-20T06:48:10;45.50;;;17.07;;
23728;SDS011;12045;60.214;24.724;2022-12-20T06:50:38;44.13;;;15.10;;
23728;SDS011;12045;60.214;24.724;2022-12-20T06:53:05;44.50;;;16.77;;
23728;SDS011;12045;60.214;24.724;2022-12-20T06:55:33;41.80;;;14.63;;
23728;SDS011;12045;60.214;24.724;2022-12-20T06:58:02;43.47;;;16.03;;
23728;SDS011;12045;60.214;24.724;2022-12-20T07:00:30;44.43;;;16.33;;
23728;SDS011;12045;60.214;24.724;2022-12-20T07:02:57;47.23;;;16.73;;
23728;SDS011;12045;60.214;24.724;2022-12-20T07:05:27;38.37;;;15.10;;
23728;SDS011;12045;60.214;24.724;2022-12-20T07:07:56;43.97;;;15.93;;
23728;SDS011;12045;60.214;24.724;2022-12-20T07:10:23;39.20;;;15.57;;
23728;SDS011;12045;60.214;24.724;2022-12-20T07:12:51;46.53;;;17.23;;
23728;SDS011;12045;60.214;24.724;2022-12-20T07:15:18;43.57;;;16.87;;
23728;SDS011;12045;60.214;24.724;2022-12-20T07:17:47;44.80;;;17.23;;
23728;SDS011;12045;60.214;24.724;2022-12-20T07:20:15;52.97;;;18.10;;
23728;SDS011;12045;60.214;24.724;2022-12-20T07:22:44;43.77;;;16.77;;
23728;SDS011;12045;60.214;24.724;2022-12-20T07:25:13;42.33;;;16.30;;
23728;SDS011;12045;60.214;24.724;2022-12-20T07:27:41;48.87;;;16.80;;
23728;SDS011;12045;60.214;24.724;2022-12-20T07:30:09;47.27;;;17.27;;
23728;SDS011;12045;60.214;24.724;2022-12-20T07:32:41;47.83;;;17.27;;
23728;SDS011;12045;60.214;24.724;2022-12-20T07:35:09;45.87;;;17.77;;
23728;SDS011;12045;60.214;24.724;2022-12-20T07:37:41;46.47;;;16.63;;
23728;SDS011;12045;60.214;24.724;2022-12-20T07:40:11;42.53;;;16.57;;
23728;SDS011;12045;60.214;24.724;2022-12-20T07:42:43;43.80;;;15.50;;
23728;SDS011;12045;60.214;24.724;2022-12-20T07:45:18;42.37;;;15.43;;
23728;SDS011;12045;60.214;24.724;2022-12-20T07:47:46;43.20;;;17.27;;
23728;SDS011;12045;60.214;24.724;2022-12-20T07:50:15;40.17;;;15.30;;
23728;SDS011;12045;60.214;24.724;2022-12-20T07:52:55;42.07;;;15.63;;
23728;SDS011;12045;60.214;24.724;2022-12-20T07:55:24;49.03;;;16.90;;
23728;SDS011;12045;60.214;24.724;2022-12-20T07:58:01;42.23;;;16.93;;
23728;SDS011;12045;60.214;24.724;2022-12-20T08:00:46;41.07;;;15.43;;
23728;SDS011;12045;60.214;24.724;2022-12-20T08:09:36;44.17;;;15.57;;
23728;SDS011;12045;60.214;24.724;2022-12-20T08:12:16;39.07;;;15.63;;
23728;SDS011;12045;60.214;24.724;2022-12-20T08:15:05;41.30;;;16.43;;
23728;SDS011;12045;60.214;24.724;2022-12-20T08:17:44;36.03;;;12.73;;
23728;SDS011;12045;60.214;24.724;2022-12-20T08:20:28;45.17;;;15.87;;
23728;SDS011;12045;60.214;24.724;2022-12-20T08:23:07;39.60;;;14.43;;
23728;SDS011;12045;60.214;24.724;2022-12-20T08:25:41;46.63;;;16.33;;
23728;SDS011;12045;60.214;24.724;2022-12-20T08:28:11;36.63;;;14.77;;
23728;SDS011;12045;60.214;24.724;2022-12-20T08:30:40;38.20;;;15.13;;
23728;SDS011;12045;60.214;24.724;2022-12-20T08:33:09;38.57;;;15.47;;
23728;SDS011;12045;60.214;24.724;2022-12-20T08:35:38;43.27;;;16.87;;
23728;SDS011;12045;60.214;24.724;2022-12-20T08:38:07;45.10;;;16.97;;
23728;SDS011;12045;60.214;24.724;2022-12-20T08:40:39;42.60;;;15.90;;
23728;SDS011;12045;60.214;24.724;2022-12-20T08:43:08;43.30;;;15.20;;
23728;SDS011;12045;60.214;24.724;2022-12-20T08:45:36;49.53;;;17.97;;
23728;SDS011;12045;60.214;24.724;2022-12-20T08:48:04;47.70;;;16.97;;
23728;SDS011;12045;60.214;24.724;2022-12-20T08:50:33;41.27;;;15.87;;
23728;SDS011;12045;60.214;24.724;2022-12-20T08:53:02;45.40;;;16.83;;
23728;SDS011;12045;60.214;24.724;2022-12-20T08:55:29;45.50;;;16.27;;
23728;SDS011;12045;60.214;24.724;2022-12-20T08:58:02;44.37;;;15.40;;
23728;SDS011;12045;60.214;24.724;2022-12-20T09:00:40;44.80;;;16.73;;
23728;SDS011;12045;60.214;24.724;2022-12-20T09:03:08;45.97;;;17.30;;
23728;SDS011;12045;60.214;24.724;2022-12-20T09:05:45;44.37;;;16.33;;
23728;SDS011;12045;60.214;24.724;2022-12-20T09:08:17;45.20;;;16.13;;
23728;SDS011;12045;60.214;24.724;2022-12-20T09:10:46;41.87;;;16.13;;
23728;SDS011;12045;60.214;24.724;2022-12-20T09:13:15;42.63;;;15.93;;
23728;SDS011;12045;60.214;24.724;2022-12-20T09:15:48;41.60;;;15.80;;
23728;SDS011;12045;60.214;24.724;2022-12-20T09:18:58;47.80;;;16.20;;
23728;SDS011;12045;60.214;24.724;2022-12-20T09:21:53;37.50;;;15.07;;
23728;SDS011;12045;60.214;24.724;2022-12-20T09:24:28;45.70;;;15.67;;
23728;SDS011;12045;60.214;24.724;2022-12-20T09:27:00;40.93;;;15.77;;
23728;SDS011;12045;60.214;24.724;2022-12-20T09:29:31;37.13;;;13.33;;
23728;SDS011;12045;60.214;24.724;2022-12-20T09:32:02;43.23;;;15.63;;
23728;SDS011;12045;60.214;24.724;2022-12-20T09:34:34;44.07;;;15.77;;
23728;SDS011;12045;60.214;24.724;2022-12-20T09:37:02;39.93;;;15.87;;
23728;SDS011;12045;60.214;24.724;2022-12-20T09:39:43;37.30;;;12.83;;
23728;SDS011;12045;60.214;24.724;2022-12-20T09:42:34;37.37;;;14.93;;
23728;SDS011;12045;60.214;24.724;2022-12-20T09:45:04;41.67;;;14.77;;
23728;SDS011;12045;60.214;24.724;2022-12-20T09:47:35;37.30;;;13.47;;
23728;SDS011;12045;60.214;24.724;2022-12-20T09:50:06;38.87;;;14.20;;
23728;SDS011;12045;60.214;24.724;2022-12-20T09:55:21;40.73;;;15.03;;
23728;SDS011;12045;60.214;24.724;2022-12-20T09:58:19;36.37;;;15.27;;
23728;SDS011;12045;60.214;24.724;2022-12-20T10:00:53;40.70;;;14.43;;
23728;SDS011;12045;60.214;24.724;2022-12-20T10:03:30;30.40;;;13.67;;
23728;SDS011;12045;60.214;24.724;2022-12-20T10:06:03;31.60;;;14.47;;
23728;SDS011;12045;60.214;24.724;2022-12-20T10:08:49;37.60;;;14.63;;
23728;SDS011;12045;60.214;24.724;2022-12-20T10:11:25;34.37;;;14.50;;
23728;SDS011;12045;60.214;24.724;2022-12-20T10:17:20;44.80;;;15.43;;
23728;SDS011;12045;60.214;24.724;2022-12-20T10:20:07;42.30;;;16.97;;
23728;SDS011;12045;60.214;24.724;2022-12-20T10:26:11;42.23;;;16.53;;
23728;SDS011;12045;60.214;24.724;2022-12-20T10:28:39;48.87;;;18.17;;
23728;SDS011;12045;60.214;24.724;2022-12-20T10:31:18;55.97;;;19.50;;
23728;SDS011;12045;60.214;24.724;2022-12-20T10:33:46;49.57;;;16.57;;
23728;SDS011;12045;60.214;24.724;2022-12-20T10:39:46;52.40;;;17.37;;
23728;SDS011;12045;60.214;24.724;2022-12-20T10:48:05;48.87;;;17.67;;
23728;SDS011;12045;60.214;24.724;2022-12-20T10:54:00;51.10;;;19.07;;
23728;SDS011;12045;60.214;24.724;2022-12-20T10:57:00;57.47;;;19.67;;
23728;SDS011;12045;60.214;24.724;2022-12-20T11:00:00;51.73;;;17.57;;
23728;SDS011;12045;60.214;24.724;2022-12-20T11:02:33;50.97;;;18.47;;
23728;SDS011;12045;60.214;24.724;2022-12-20T11:07:51;50.30;;;17.87;;
23728;SDS011;12045;60.214;24.724;2022-12-20T11:10:40;62.30;;;19.20;;
23728;SDS011;12045;60.214;24.724;2022-12-20T11:13:09;54.03;;;18.87;;
23728;SDS011;12045;60.214;24.724;2022-12-20T11:15:52;61.57;;;20.17;;
23728;SDS011;12045;60.214;24.724;2022-12-20T11:18:41;56.50;;;19.50;;
23728;SDS011;12045;60.214;24.724;2022-12-20T11:24:39;58.30;;;19.07;;
23728;SDS011;12045;60.214;24.724;2022-12-20T11:27:22;57.43;;;20.47;;
23728;SDS011;12045;60.214;24.724;2022-12-20T11:30:04;48.83;;;17.30;;
23728;SDS011;12045;60.214;24.724;2022-12-20T11:42:07;36.83;;;14.10;;
23728;SDS011;12045;60.214;24.724;2022-12-20T11:44:57;41.13;;;15.00;;
23728;SDS011;12045;60.214;24.724;2022-12-20T11:48:17;49.90;;;16.43;;
23728;SDS011;12045;60.214;24.724;2022-12-20T12:00:56;59.07;;;18.30;;
23728;SDS011;12045;60.214;24.724;2022-12-20T12:03:34;59.80;;;16.83;;
23728;SDS011;12045;60.214;24.724;2022-12-20T12:06:15;44.53;;;15.50;;
23728;SDS011;12045;60.214;24.724;2022-12-20T12:11:40;61.73;;;18.93;;
23728;SDS011;12045;60.214;24.724;2022-12-20T12:18:04;50.17;;;17.43;;
23728;SDS011;12045;60.214;24.724;2022-12-20T12:21:25;56.33;;;17.67;;
23728;SDS011;12045;60.214;24.724;2022-12-20T12:24:56;46.50;;;15.87;;
23728;SDS011;12045;60.214;24.724;2022-12-20T12:27:49;63.20;;;19.70;;
23728;SDS011;12045;60.214;24.724;2022-12-20T12:30:40;59.30;;;18.10;;
23728;SDS011;12045;60.214;24.724;2022-12-20T12:33:37;56.33;;;18.70;;
23728;SDS011;12045;60.214;24.724;2022-12-20T12:37:25;52.37;;;18.17;;
23728;SDS011;12045;60.214;24.724;2022-12-20T12:46:27;51.53;;;18.17;;
23728;SDS011;12045;60.214;24.724;2022-12-20T12:48:59;54.70;;;17.63;;
23728;SDS011;12045;60.214;24.724;2022-12-20T12:51:37;44.70;;;16.83;;
23728;SDS011;12045;60.214;24.724;2022-12-20T12:56:38;56.33;;;17.83;;
23728;SDS011;12045;60.214;24.724;2022-12-20T13:09:59;55.27;;;18.27;;
23728;SDS011;12045;60.214;24.724;2022-12-20T13:17:51;46.37;;;14.77;;
23728;SDS011;12045;60.214;24.724;2022-12-20T13:20:25;54.50;;;16.67;;
23728;SDS011;12045;60.214;24.724;2022-12-20T13:25:35;53.83;;;16.77;;
23728;SDS011;12045;60.214;24.724;2022-12-20T13:33:43;51.83;;;16.60;;
23728;SDS011;12045;60.214;24.724;2022-12-20T13:43:52;51.77;;;15.70;;
23728;SDS011;12045;60.214;24.724;2022-12-20T13:49:22;41.57;;;15.17;;
23728;SDS011;12045;60.214;24.724;2022-12-20T13:54:54;36.67;;;13.40;;
23728;SDS011;12045;60.214;24.724;2022-12-20T13:57:28;48.13;;;15.67;;
23728;SDS011;12045;60.214;24.724;2022-12-20T14:00:00;44.63;;;14.80;;
23728;SDS011;12045;60.214;24.724;2022-12-20T14:02:34;41.67;;;14.83;;
23728;SDS011;12045;60.214;24.724;2022-12-20T14:05:21;44.13;;;15.20;;
23728;SDS011;12045;60.214;24.724;2022-12-20T14:07:57;45.87;;;14.43;;
23728;SDS011;12045;60.214;24.724;2022-12-20T14:10:47;40.20;;;14.13;;
23728;SDS011;12045;60.214;24.724;2022-12-20T14:13:26;55.20;;;15.70;;
23728;SDS011;12045;60.214;24.724;2022-12-20T14:15:53;38.30;;;14.17;;
23728;SDS011;12045;60.214;24.724;2022-12-20T14:18:23;43.00;;;14.27;;
23728;SDS011;12045;60.214;24.724;2022-12-20T14:20:55;44.07;;;14.50;;
23728;SDS011;12045;60.214;24.724;2022-12-20T14:23:26;48.80;;;14.97;;
23728;SDS011;12045;60.214;24.724;2022-12-20T14:26:00;48.73;;;15.53;;
23728;SDS011;12045;60.214;24.724;2022-12-20T14:31:04;46.90;;;16.07;;
23728;SDS011;12045;60.214;24.724;2022-12-20T14:33:40;46.27;;;14.93;;
23728;SDS011;12045;60.214;24.724;2022-12-20T14:38:45;50.93;;;16.83;;
23728;SDS011;12045;60.214;24.724;2022-12-20T14:41:32;37.13;;;12.83;;
23728;SDS011;12045;60.214;24.724;2022-12-20T14:46:34;45.97;;;14.57;;
23728;SDS011;12045;60.214;24.724;2022-12-20T14:49:16;49.53;;;16.70;;
23728;SDS011;12045;60.214;24.724;2022-12-20T14:54:32;49.23;;;15.47;;
23728;SDS011;12045;60.214;24.724;2022-12-20T14:59:56;37.27;;;13.13;;
23728;SDS011;12045;60.214;24.724;2022-12-20T15:02:34;39.47;;;15.10;;
23728;SDS011;12045;60.214;24.724;2022-12-20T15:05:30;40.37;;;14.10;;
23728;SDS011;12045;60.214;24.724;2022-12-20T15:08:08;38.97;;;13.37;;
23728;SDS011;12045;60.214;24.724;2022-12-20T15:10:56;52.27;;;15.30;;
23728;SDS011;12045;60.214;24.724;2022-12-20T15:13:37;27.93;;;8.90;;
23728;SDS011;12045;60.214;24.724;2022-12-20T15:16:12;37.00;;;13.40;;
23728;SDS011;12045;60.214;24.724;2022-12-20T15:18:42;33.37;;;11.17;;
23728;SDS011;12045;60.214;24.724;2022-12-20T15:21:12;34.73;;;11.87;;
23728;SDS011;12045;60.214;24.724;2022-12-20T15:23:53;29.90;;;11.00;;
23728;SDS011;12045;60.214;24.724;2022-12-20T15:26:22;29.27;;;12.47;;
23728;SDS011;12045;60.214;24.724;2022-12-20T15:28:51;29.27;;;10.67;;
23728;SDS011;12045;60.214;24.724;2022-12-20T15:31:20;27.90;;;11.13;;
23728;SDS011;12045;60.214;24.724;2022-12-20T15:33:59;29.40;;;10.60;;
23728;SDS011;12045;60.214;24.724;2022-12-20T15:36:28;34.10;;;12.20;;
23728;SDS011;12045;60.214;24.724;2022-12-20T15:38:56;33.83;;;11.10;;
23728;SDS011;12045;60.214;24.724;2022-12-20T15:41:42;28.43;;;11.67;;
23728;SDS011;12045;60.214;24.724;2022-12-20T15:44:15;21.57;;;8.80;;
23728;SDS011;12045;60.214;24.724;2022-12-20T15:46:46;37.97;;;13.20;;
23728;SDS011;12045;60.214;24.724;2022-12-20T15:49:15;37.27;;;13.50;;
23728;SDS011;12045;60.214;24.724;2022-12-20T15:51:44;36.03;;;11.77;;
23728;SDS011;12045;60.214;24.724;2022-12-20T15:54:18;28.17;;;10.97;;
23728;SDS011;12045;60.214;24.724;2022-12-20T15:56:47;39.63;;;12.83;;
23728;SDS011;12045;60.214;24.724;2022-12-20T15:59:15;23.07;;;9.00;;
23728;SDS011;12045;60.214;24.724;2022-12-20T16:02:02;31.53;;;12.47;;
23728;SDS011;12045;60.214;24.724;2022-12-20T16:04:37;23.53;;;9.50;;
23728;SDS011;12045;60.214;24.724;2022-12-20T16:07:12;29.83;;;11.27;;
23728;SDS011;12045;60.214;24.724;2022-12-20T16:09:39;33.07;;;12.63;;
23728;SDS011;12045;60.214;24.724;2022-12-20T16:12:12;29.07;;;10.90;;
23728;SDS011;12045;60.214;24.724;2022-12-20T16:14:52;31.37;;;12.30;;
23728;SDS011;12045;60.214;24.724;2022-12-20T16:17:19;38.87;;;13.97;;
23728;SDS011;12045;60.214;24.724;2022-12-20T16:19:47;27.63;;;9.70;;
23728;SDS011;12045;60.214;24.724;2022-12-20T16:22:16;35.00;;;11.07;;
23728;SDS011;12045;60.214;24.724;2022-12-20T16:24:45;37.10;;;12.73;;
23728;SDS011;12045;60.214;24.724;2022-12-20T16:27:13;31.47;;;12.57;;
23728;SDS011;12045;60.214;24.724;2022-12-20T16:29:41;36.90;;;12.20;;
23728;SDS011;12045;60.214;24.724;2022-12-20T16:32:18;25.47;;;9.83;;
23728;SDS011;12045;60.214;24.724;2022-12-20T16:34:48;24.63;;;9.90;;
23728;SDS011;12045;60.214;24.724;2022-12-20T16:37:16;29.67;;;10.70;;
23728;SDS011;12045;60.214;24.724;2022-12-20T16:39:43;34.57;;;11.30;;
23728;SDS011;12045;60.214;24.724;2022-12-20T16:42:15;22.17;;;9.17;;
23728;SDS011;12045;60.214;24.724;2022-12-20T16:44:51;29.27;;;11.13;;
23728;SDS011;12045;60.214;24.724;2022-12-20T16:47:20;30.23;;;10.97;;
23728;SDS011;12045;60.214;24.724;2022-12-20T16:49:48;22.63;;;9.60;;
23728;SDS011;12045;60.214;24.724;2022-12-20T16:52:19;22.03;;;9.50;;
23728;SDS011;12045;60.214;24.724;2022-12-20T16:54:49;23.47;;;10.37;;
23728;SDS011;12045;60.214;24.724;2022-12-20T16:57:16;22.57;;;9.47;;
23728;SDS011;12045;60.214;24.724;2022-12-20T16:59:44;26.07;;;9.63;;
23728;SDS011;12045;60.214;24.724;2022-12-20T17:04:56;24.10;;;10.50;;
23728;SDS011;12045;60.214;24.724;2022-12-20T17:07:24;28.03;;;10.57;;
23728;SDS011;12045;60.214;24.724;2022-12-20T17:09:52;26.60;;;11.10;;